Time,TemperatureF,DewpointF,PressureIn,WindDirection,WindDirectionDegrees,WindSpeedMPH,WindSpeedGustMPH,Humidity,HourlyPrecipIn,Conditions,Clouds,dailyrainin,SoftwareType,DateUTC
2013-03-14 15:00:00,33.0,14.5,29.70,WSW,247,3.0,4.0,46,0.00,,,0.00,Weather View 32 v70,2013-03-14 19:00:00,
2013-03-14 15:05:00,33.0,13.4,29.70,ENE,67,7.0,9.0,44,0.00,,,0.00,Weather View 32 v70,2013-03-14 19:05:00,
2013-03-14 15:10:00,32.0,11.5,29.70,West,270,5.0,16.0,42,0.00,,,0.00,Weather View 32 v70,2013-03-14 19:10:00,
2013-03-14 15:15:00,32.0,12.5,29.70,WNW,292,6.0,16.0,44,0.00,,,0.00,Weather View 32 v70,2013-03-14 19:15:00,
2013-03-14 15:20:00,32.0,13.5,29.70,WNW,292,7.0,16.0,46,0.00,,,0.00,Weather View 32 v70,2013-03-14 19:20:00,
2013-03-14 15:25:00,32.0,12.5,29.70,ESE,112,4.0,16.0,44,0.00,,,0.00,Weather View 32 v70,2013-03-14 19:25:00,
2013-03-14 15:30:00,32.0,12.5,29.70,West,270,6.0,16.0,44,0.00,,,0.00,Weather View 32 v70,2013-03-14 19:30:00,
2013-03-14 15:35:00,32.0,12.5,29.70,SW,225,1.0,16.0,44,0.00,,,0.00,Weather View 32 v70,2013-03-14 19:35:00,
2013-03-14 15:40:00,33.0,13.4,29.70,SSW,202,0.0,16.0,44,0.00,,,0.00,Weather View 32 v70,2013-03-14 19:40:00,
2013-03-14 15:45:00,33.0,14.5,29.70,SSW,202,1.0,16.0,46,0.00,,,0.00,Weather View 32 v70,2013-03-14 19:45:00,
2013-03-14 15:50:00,33.0,12.4,29.70,SW,225,6.0,16.0,42,0.00,,,0.00,Weather View 32 v70,2013-03-14 19:50:00,
2013-03-14 15:55:00,33.0,13.4,29.70,SSW,202,0.0,16.0,44,0.00,,,0.00,Weather View 32 v70,2013-03-14 19:55:00,
2013-03-14 16:00:00,33.0,13.4,29.70,SW,225,3.0,16.0,44,0.00,,,0.00,Weather View 32 v70,2013-03-14 20:00:00,
2013-03-14 16:05:00,33.0,12.4,29.70,West,270,6.0,16.0,42,0.00,,,0.00,Weather View 32 v70,2013-03-14 20:05:00,
2013-03-14 16:10:00,33.0,13.4,29.70,South,180,0.0,14.0,44,0.00,,,0.00,Weather View 32 v70,2013-03-14 20:10:00,
2013-03-14 16:15:00,33.0,14.0,29.70,NW,315,1.0,13.0,45,0.00,,,0.00,Weather View 32 v70,2013-03-14 20:15:00,
2013-03-14 16:20:00,33.0,12.9,29.70,East,90,5.0,13.0,43,0.00,,,0.00,Weather View 32 v70,2013-03-14 20:20:00,
2013-03-14 16:25:00,33.0,12.9,29.70,East,90,2.0,13.0,43,0.00,,,0.00,Weather View 32 v70,2013-03-14 20:25:00,
2013-03-14 16:30:00,32.0,12.0,29.70,NE,45,3.0,13.0,43,0.00,,,0.00,Weather View 32 v70,2013-03-14 20:30:00,
2013-03-14 16:35:00,32.0,12.5,29.70,ENE,67,5.0,13.0,44,0.00,,,0.00,Weather View 32 v70,2013-03-14 20:35:00,
2013-03-14 16:40:00,32.0,12.0,29.70,ENE,67,6.0,13.0,43,0.00,,,0.00,Weather View 32 v70,2013-03-14 20:40:00,
2013-03-14 16:45:00,32.0,12.5,29.70,WSW,247,3.0,13.0,44,0.00,,,0.00,Weather View 32 v70,2013-03-14 20:45:00,
2013-03-14 16:50:00,32.0,12.5,29.70,NE,45,8.0,13.0,44,0.00,,,0.00,Weather View 32 v70,2013-03-14 20:50:00,
2013-03-14 16:55:00,32.0,14.0,29.70,NNW,337,0.0,15.0,47,0.00,,,0.00,Weather View 32 v70,2013-03-14 20:55:00,
2013-03-14 17:00:00,32.0,12.5,29.71,NW,315,6.0,15.0,44,0.00,,,0.00,Weather View 32 v70,2013-03-14 21:00:00,
2013-03-14 17:05:00,32.0,13.5,29.70,South,180,2.0,15.0,46,0.00,,,0.00,Weather View 32 v70,2013-03-14 21:05:00,
2013-03-14 17:10:00,32.0,14.0,29.71,ENE,67,0.0,15.0,47,0.00,,,0.00,Weather View 32 v70,2013-03-14 21:10:00,
2013-03-14 17:15:00,32.0,13.5,29.71,West,270,0.0,15.0,46,0.00,,,0.00,Weather View 32 v70,2013-03-14 21:15:00,
2013-03-14 17:20:00,32.0,14.0,29.71,WNW,292,5.0,15.0,47,0.00,,,0.00,Weather View 32 v70,2013-03-14 21:20:00,
2013-03-14 17:25:00,31.0,13.1,29.71,WSW,247,2.0,15.0,47,0.00,,,0.00,Weather View 32 v70,2013-03-14 21:25:00,
2013-03-14 17:30:00,31.0,13.6,29.72,ENE,67,2.0,15.0,48,0.00,,,0.00,Weather View 32 v70,2013-03-14 21:30:00,
2013-03-14 17:35:00,30.0,12.2,29.72,West,270,3.0,15.0,47,0.00,,,0.00,Weather View 32 v70,2013-03-14 21:35:00,
2013-03-14 17:40:00,30.0,12.7,29.72,WNW,292,3.0,15.0,48,0.00,,,0.00,Weather View 32 v70,2013-03-14 21:40:00,
2013-03-14 17:45:00,30.0,13.1,29.72,ENE,67,2.0,15.0,49,0.00,,,0.00,Weather View 32 v70,2013-03-14 21:45:00,
2013-03-14 17:50:00,29.0,12.7,29.72,SW,225,2.0,15.0,50,0.00,,,0.00,Weather View 32 v70,2013-03-14 21:50:00,
2013-03-14 17:55:00,29.0,12.7,29.72,WSW,247,1.0,12.0,50,0.00,,,0.00,Weather View 32 v70,2013-03-14 21:55:00,
2013-03-14 18:00:00,29.0,12.7,29.72,ESE,112,0.0,12.0,50,0.00,,,0.00,Weather View 32 v70,2013-03-14 22:00:00,
2013-03-14 18:05:00,28.0,12.2,29.72,South,180,0.0,12.0,51,0.00,,,0.00,Weather View 32 v70,2013-03-14 22:05:00,
2013-03-14 18:10:00,28.0,12.2,29.72,SW,225,1.0,12.0,51,0.00,,,0.00,Weather View 32 v70,2013-03-14 22:10:00,
2013-03-14 18:15:00,28.0,12.2,29.72,ENE,67,4.0,12.0,51,0.00,,,0.00,Weather View 32 v70,2013-03-14 22:15:00,
2013-03-14 18:20:00,28.0,12.2,29.73,NNW,337,4.0,12.0,51,0.00,,,0.00,Weather View 32 v70,2013-03-14 22:20:00,
2013-03-14 18:25:00,28.0,12.6,29.73,WNW,292,7.0,12.0,52,0.00,,,0.00,Weather View 32 v70,2013-03-14 22:25:00,
2013-03-14 18:30:00,27.0,12.1,29.73,ENE,67,1.0,12.0,53,0.00,,,0.00,Weather View 32 v70,2013-03-14 22:30:00,
2013-03-14 18:36:00,27.0,12.1,29.73,West,270,4.0,11.0,53,0.00,,,0.00,Weather View 32 v70,2013-03-14 22:36:00,
2013-03-14 18:41:00,27.0,12.1,29.74,ENE,67,2.0,11.0,53,0.00,,,0.00,Weather View 32 v70,2013-03-14 22:41:00,
2013-03-14 18:45:00,27.0,11.7,29.73,WNW,292,7.0,11.0,52,0.00,,,0.00,Weather View 32 v70,2013-03-14 22:45:00,
2013-03-14 18:50:00,26.0,10.8,29.74,NNW,337,1.0,12.0,52,0.00,,,0.00,Weather View 32 v70,2013-03-14 22:50:00,
2013-03-14 18:56:00,26.0,12.0,29.74,WNW,292,4.0,12.0,55,0.00,,,0.00,Weather View 32 v70,2013-03-14 22:56:00,
2013-03-14 19:01:00,26.0,12.0,29.74,WSW,247,5.0,12.0,55,0.00,,,0.00,Weather View 32 v70,2013-03-14 23:01:00,
2013-03-14 19:06:00,26.0,12.0,29.74,East,90,1.0,12.0,55,0.00,,,0.00,Weather View 32 v70,2013-03-14 23:06:00,
2013-03-14 19:11:00,26.0,11.6,29.74,SSE,157,1.0,12.0,54,0.00,,,0.00,Weather View 32 v70,2013-03-14 23:11:00,
2013-03-14 19:16:00,26.0,10.8,29.74,NW,315,3.0,13.0,52,0.00,,,0.00,Weather View 32 v70,2013-03-14 23:16:00,
2013-03-14 19:21:00,26.0,12.0,29.74,West,270,5.0,13.0,55,0.00,,,0.00,Weather View 32 v70,2013-03-14 23:21:00,
2013-03-14 19:26:00,26.0,11.6,29.75,WNW,292,4.0,13.0,54,0.00,,,0.00,Weather View 32 v70,2013-03-14 23:26:00,
2013-03-14 19:31:00,26.0,12.0,29.76,SW,225,2.0,13.0,55,0.00,,,0.00,Weather View 32 v70,2013-03-14 23:31:00,
2013-03-14 19:36:00,26.0,12.0,29.76,ENE,67,1.0,13.0,55,0.00,,,0.00,Weather View 32 v70,2013-03-14 23:36:00,
2013-03-14 19:41:00,25.0,10.7,29.76,West,270,6.0,13.0,54,0.00,,,0.00,Weather View 32 v70,2013-03-14 23:41:00,
2013-03-14 19:46:00,25.0,11.1,29.76,ENE,67,4.0,13.0,55,0.00,,,0.00,Weather View 32 v70,2013-03-14 23:46:00,
2013-03-14 19:51:00,25.0,10.3,29.76,ENE,67,2.0,13.0,53,0.00,,,0.00,Weather View 32 v70,2013-03-14 23:51:00,
2013-03-14 19:56:00,25.0,9.4,29.77,ENE,67,6.0,13.0,51,0.00,,,0.00,Weather View 32 v70,2013-03-14 23:56:00,
2013-03-14 20:01:00,25.0,9.4,29.77,SSW,202,1.0,14.0,51,0.00,,,0.00,Weather View 32 v70,2013-03-15 00:01:00,
2013-03-14 20:06:00,25.0,9.0,29.77,NNW,337,2.0,14.0,50,0.00,,,0.00,Weather View 32 v70,2013-03-15 00:06:00,
2013-03-14 20:11:00,25.0,9.4,29.77,NNE,22,4.0,14.0,51,0.00,,,0.00,Weather View 32 v70,2013-03-15 00:11:00,
2013-03-14 20:16:00,25.0,9.4,29.77,WSW,247,0.0,14.0,51,0.00,,,0.00,Weather View 32 v70,2013-03-15 00:16:00,
2013-03-14 20:21:00,25.0,9.0,29.78,ENE,67,5.0,14.0,50,0.00,,,0.00,Weather View 32 v70,2013-03-15 00:21:00,
2013-03-14 20:26:00,25.0,9.4,29.78,WSW,247,6.0,14.0,51,0.00,,,0.00,Weather View 32 v70,2013-03-15 00:26:00,
2013-03-14 20:31:00,24.0,9.3,29.78,ENE,67,6.0,14.0,53,0.00,,,0.00,Weather View 32 v70,2013-03-15 00:31:00,
2013-03-14 20:36:00,24.0,8.0,29.79,ENE,67,3.0,14.0,50,0.00,,,0.00,Weather View 32 v70,2013-03-15 00:36:00,
2013-03-14 20:41:00,24.0,8.9,29.79,West,270,2.0,14.0,52,0.00,,,0.00,Weather View 32 v70,2013-03-15 00:41:00,
2013-03-14 20:46:00,24.0,8.9,29.78,ENE,67,6.0,14.0,52,0.00,,,0.00,Weather View 32 v70,2013-03-15 00:46:00,
2013-03-14 20:51:00,24.0,8.9,29.79,SE,135,6.0,14.0,52,0.00,,,0.00,Weather View 32 v70,2013-03-15 00:51:00,
2013-03-14 20:56:00,24.0,9.3,29.79,South,180,0.0,21.0,53,0.00,,,0.00,Weather View 32 v70,2013-03-15 00:56:00,
2013-03-14 21:01:00,23.0,8.0,29.79,ENE,67,9.0,21.0,52,0.00,,,0.00,Weather View 32 v70,2013-03-15 01:01:00,
2013-03-14 21:06:00,23.0,7.6,29.79,ENE,67,5.0,21.0,51,0.00,,,0.00,Weather View 32 v70,2013-03-15 01:06:00,
2013-03-14 21:11:00,23.0,7.1,29.79,WSW,247,3.0,21.0,50,0.00,,,0.00,Weather View 32 v70,2013-03-15 01:11:00,
2013-03-14 21:16:00,23.0,7.6,29.79,West,270,1.0,21.0,51,0.00,,,0.00,Weather View 32 v70,2013-03-15 01:16:00,
2013-03-14 21:22:00,23.0,8.0,29.79,ENE,67,5.0,21.0,52,0.00,,,0.00,Weather View 32 v70,2013-03-15 01:22:00,
2013-03-14 21:27:00,23.0,8.4,29.79,West,270,13.0,21.0,53,0.00,,,0.00,Weather View 32 v70,2013-03-15 01:27:00,
2013-03-14 21:32:00,23.0,7.6,29.79,SW,225,2.0,21.0,51,0.00,,,0.00,Weather View 32 v70,2013-03-15 01:32:00,
2013-03-14 21:37:00,23.0,8.0,29.79,North,360,3.0,21.0,52,0.00,,,0.00,Weather View 32 v70,2013-03-15 01:37:00,
2013-03-14 21:42:00,22.0,7.1,29.79,ENE,67,6.0,21.0,52,0.00,,,0.00,Weather View 32 v70,2013-03-15 01:42:00,
2013-03-14 21:47:00,22.0,7.1,29.79,ESE,112,3.0,21.0,52,0.00,,,0.00,Weather View 32 v70,2013-03-15 01:47:00,
2013-03-14 21:52:00,22.0,7.9,29.79,WSW,247,5.0,21.0,54,0.00,,,0.00,Weather View 32 v70,2013-03-15 01:52:00,
2013-03-14 21:57:00,22.0,8.3,29.79,SSE,157,1.0,15.0,55,0.00,,,0.00,Weather View 32 v70,2013-03-15 01:57:00,
2013-03-14 22:02:00,22.0,8.3,29.79,ENE,67,5.0,15.0,55,0.00,,,0.00,Weather View 32 v70,2013-03-15 02:02:00,
2013-03-14 22:07:00,22.0,8.3,29.79,ENE,67,5.0,15.0,55,0.00,,,0.00,Weather View 32 v70,2013-03-15 02:07:00,
2013-03-14 22:12:00,22.0,8.3,29.79,WSW,247,0.0,14.0,55,0.00,,,0.00,Weather View 32 v70,2013-03-15 02:12:00,
2013-03-14 22:17:00,22.0,7.9,29.79,East,90,5.0,14.0,54,0.00,,,0.00,Weather View 32 v70,2013-03-15 02:17:00,
2013-03-14 22:22:00,22.0,8.3,29.79,ESE,112,5.0,14.0,55,0.00,,,0.00,Weather View 32 v70,2013-03-15 02:22:00,
2013-03-14 22:27:00,22.0,8.3,29.79,East,90,6.0,14.0,55,0.00,,,0.00,Weather View 32 v70,2013-03-15 02:27:00,
2013-03-14 22:32:00,22.0,8.7,29.79,East,90,1.0,14.0,56,0.00,,,0.00,Weather View 32 v70,2013-03-15 02:32:00,
2013-03-14 22:37:00,22.0,8.7,29.79,East,90,5.0,14.0,56,0.00,,,0.00,Weather View 32 v70,2013-03-15 02:37:00,
2013-03-14 22:42:00,22.0,8.7,29.79,ENE,67,4.0,14.0,56,0.00,,,0.00,Weather View 32 v70,2013-03-15 02:42:00,
2013-03-14 22:47:00,22.0,8.7,29.79,West,270,0.0,14.0,56,0.00,,,0.00,Weather View 32 v70,2013-03-15 02:47:00,
2013-03-14 22:52:00,22.0,9.5,29.79,ENE,67,7.0,14.0,58,0.00,,,0.00,Weather View 32 v70,2013-03-15 02:52:00,
2013-03-14 22:57:00,21.0,8.5,29.79,ENE,67,6.0,14.0,58,0.00,,,0.00,Weather View 32 v70,2013-03-15 02:57:00,
2013-03-14 23:02:00,21.0,8.5,29.79,ESE,112,3.0,14.0,58,0.00,,,0.00,Weather View 32 v70,2013-03-15 03:02:00,
2013-03-14 23:07:00,21.0,8.5,29.79,ENE,67,4.0,14.0,58,0.00,,,0.00,Weather View 32 v70,2013-03-15 03:07:00,
2013-03-14 23:12:00,21.0,8.5,29.79,NE,45,7.0,14.0,58,0.00,,,0.00,Weather View 32 v70,2013-03-15 03:12:00,
2013-03-14 23:17:00,21.0,8.9,29.79,WNW,292,0.0,12.0,59,0.00,,,0.00,Weather View 32 v70,2013-03-15 03:17:00,
2013-03-14 23:22:00,21.0,8.9,29.79,West,270,5.0,14.0,59,0.00,,,0.00,Weather View 32 v70,2013-03-15 03:22:00,
2013-03-14 23:27:00,21.0,9.3,29.79,ESE,112,1.0,14.0,60,0.00,,,0.00,Weather View 32 v70,2013-03-15 03:27:00,
2013-03-14 23:32:00,21.0,9.3,29.79,East,90,6.0,14.0,60,0.00,,,0.00,Weather View 32 v70,2013-03-15 03:32:00,
2013-03-14 23:37:00,21.0,9.3,29.79,ESE,112,0.0,14.0,60,0.00,,,0.00,Weather View 32 v70,2013-03-15 03:37:00,
2013-03-14 23:42:00,21.0,10.0,29.79,West,270,1.0,14.0,62,0.00,,,0.00,Weather View 32 v70,2013-03-15 03:42:00,
2013-03-14 23:47:00,21.0,9.7,29.79,WSW,247,3.0,14.0,61,0.00,,,0.00,Weather View 32 v70,2013-03-15 03:47:00,
2013-03-14 23:52:00,21.0,10.0,29.79,ENE,67,5.0,14.0,62,0.00,,,0.00,Weather View 32 v70,2013-03-15 03:52:00,
2013-03-14 23:57:00,21.0,10.4,29.79,SSW,202,0.0,14.0,63,0.00,,,0.00,Weather View 32 v70,2013-03-15 03:57:00,